Webcam Richtung Westen

Webcam27

Webcam Richtung Norden

Webcam36

Webcam Richtung Osten

Webcam09

Wetter(Würzburg):
220400Z AUTO 14005G08KT 3700 OVC008 03/02 Q1010
		
Fri 22.11.2019, 04:00 UTC

Sichtweite bis zu 3700 m
Wind aus 140° mit 05kt, in Böen bis zu 08kt
bedeckter Himmel (8 Achtel) bei 800 Fuß
Temperatur: 3 °C
Taupunkt: 2 °C
QNH: 1010 hPa
                         Heute        Morgen
                         22.11        23.11
--------------------------------------------
Beginn der Dämmerung     06:06        06:07
Sonnenaufgang            06:42        06:44
Sonnenuntergang          15:30        15:29
Ende der Dämmerung       16:06        16:05

Alle Zeiten in UTC